sensor_id;sensor_type;location;lat;lon;timestamp;P1;durP1;ratioP1;P2;durP2;ratioP2
73940;SDS011;62294;48.554;10.202;2024-02-15T00:01:42;5.55;;;3.47;;
73940;SDS011;62294;48.554;10.202;2024-02-15T00:04:08;7.00;;;3.92;;
73940;SDS011;62294;48.554;10.202;2024-02-15T00:06:37;10.27;;;3.95;;
73940;SDS011;62294;48.554;10.202;2024-02-15T00:09:03;6.47;;;3.90;;
73940;SDS011;62294;48.554;10.202;2024-02-15T00:11:30;7.57;;;3.85;;
73940;SDS011;62294;48.554;10.202;2024-02-15T00:13:58;8.45;;;3.70;;
73940;SDS011;62294;48.554;10.202;2024-02-15T00:16:24;8.13;;;3.85;;
73940;SDS011;62294;48.554;10.202;2024-02-15T00:18:51;5.55;;;3.38;;
73940;SDS011;62294;48.554;10.202;2024-02-15T00:21:18;7.28;;;3.47;;
73940;SDS011;62294;48.554;10.202;2024-02-15T00:23:44;4.97;;;2.88;;
73940;SDS011;62294;48.554;10.202;2024-02-15T00:26:11;7.63;;;3.90;;
73940;SDS011;62294;48.554;10.202;2024-02-15T00:28:40;6.53;;;4.25;;
73940;SDS011;62294;48.554;10.202;2024-02-15T00:31:07;6.32;;;3.33;;
73940;SDS011;62294;48.554;10.202;2024-02-15T00:33:34;6.03;;;3.33;;
73940;SDS011;62294;48.554;10.202;2024-02-15T00:36:05;6.30;;;3.40;;
73940;SDS011;62294;48.554;10.202;2024-02-15T00:38:32;6.72;;;3.90;;
73940;SDS011;62294;48.554;10.202;2024-02-15T00:40:58;6.13;;;3.40;;
73940;SDS011;62294;48.554;10.202;2024-02-15T00:43:28;4.57;;;2.90;;
73940;SDS011;62294;48.554;10.202;2024-02-15T00:45:55;6.97;;;3.65;;
73940;SDS011;62294;48.554;10.202;2024-02-15T00:48:21;5.55;;;3.45;;
73940;SDS011;62294;48.554;10.202;2024-02-15T00:50:48;7.63;;;3.05;;
73940;SDS011;62294;48.554;10.202;2024-02-15T00:53:15;6.55;;;3.97;;
73940;SDS011;62294;48.554;10.202;2024-02-15T00:55:43;6.55;;;4.03;;
73940;SDS011;62294;48.554;10.202;2024-02-15T00:58:09;5.35;;;3.45;;
73940;SDS011;62294;48.554;10.202;2024-02-15T01:00:36;8.65;;;4.55;;
73940;SDS011;62294;48.554;10.202;2024-02-15T01:03:02;4.40;;;3.60;;
73940;SDS011;62294;48.554;10.202;2024-02-15T01:05:29;8.15;;;4.13;;
73940;SDS011;62294;48.554;10.202;2024-02-15T01:07:56;5.90;;;3.60;;
73940;SDS011;62294;48.554;10.202;2024-02-15T01:10:23;7.43;;;4.30;;
73940;SDS011;62294;48.554;10.202;2024-02-15T01:12:53;9.25;;;4.30;;
73940;SDS011;62294;48.554;10.202;2024-02-15T01:15:19;8.68;;;3.60;;
73940;SDS011;62294;48.554;10.202;2024-02-15T01:17:47;7.65;;;3.88;;
73940;SDS011;62294;48.554;10.202;2024-02-15T01:20:13;6.95;;;4.38;;
73940;SDS011;62294;48.554;10.202;2024-02-15T01:22:40;6.07;;;3.78;;
73940;SDS011;62294;48.554;10.202;2024-02-15T01:25:07;6.03;;;3.22;;
73940;SDS011;62294;48.554;10.202;2024-02-15T01:27:35;6.85;;;4.15;;
73940;SDS011;62294;48.554;10.202;2024-02-15T01:30:02;5.90;;;3.75;;
73940;SDS011;62294;48.554;10.202;2024-02-15T01:32:30;7.55;;;3.88;;
73940;SDS011;62294;48.554;10.202;2024-02-15T01:34:57;4.57;;;2.85;;
73940;SDS011;62294;48.554;10.202;2024-02-15T01:37:24;5.20;;;3.20;;
73940;SDS011;62294;48.554;10.202;2024-02-15T01:39:50;5.97;;;3.55;;
73940;SDS011;62294;48.554;10.202;2024-02-15T01:42:17;9.40;;;3.25;;
73940;SDS011;62294;48.554;10.202;2024-02-15T01:44:44;4.47;;;2.55;;
73940;SDS011;62294;48.554;10.202;2024-02-15T01:47:10;5.25;;;2.75;;
73940;SDS011;62294;48.554;10.202;2024-02-15T01:49:37;4.60;;;2.70;;
73940;SDS011;62294;48.554;10.202;2024-02-15T01:52:04;4.22;;;2.45;;
73940;SDS011;62294;48.554;10.202;2024-02-15T01:54:34;3.95;;;2.47;;
73940;SDS011;62294;48.554;10.202;2024-02-15T01:57:02;4.18;;;2.42;;
73940;SDS011;62294;48.554;10.202;2024-02-15T01:59:30;3.08;;;2.17;;
73940;SDS011;62294;48.554;10.202;2024-02-15T02:01:57;4.13;;;2.80;;
73940;SDS011;62294;48.554;10.202;2024-02-15T02:04:24;4.88;;;2.47;;
73940;SDS011;62294;48.554;10.202;2024-02-15T02:06:50;6.05;;;2.70;;
73940;SDS011;62294;48.554;10.202;2024-02-15T02:09:17;6.03;;;2.70;;
73940;SDS011;62294;48.554;10.202;2024-02-15T02:11:44;4.43;;;2.63;;
73940;SDS011;62294;48.554;10.202;2024-02-15T02:14:12;6.28;;;2.80;;
73940;SDS011;62294;48.554;10.202;2024-02-15T02:16:39;4.88;;;3.10;;
73940;SDS011;62294;48.554;10.202;2024-02-15T02:19:06;7.38;;;2.95;;
73940;SDS011;62294;48.554;10.202;2024-02-15T02:21:35;3.75;;;2.50;;
73940;SDS011;62294;48.554;10.202;2024-02-15T02:24:03;5.22;;;3.45;;
73940;SDS011;62294;48.554;10.202;2024-02-15T02:26:34;4.57;;;3.00;;
73940;SDS011;62294;48.554;10.202;2024-02-15T02:29:01;7.07;;;2.95;;
73940;SDS011;62294;48.554;10.202;2024-02-15T02:31:34;6.03;;;3.13;;
73940;SDS011;62294;48.554;10.202;2024-02-15T02:34:01;4.40;;;3.33;;
73940;SDS011;62294;48.554;10.202;2024-02-15T02:36:28;5.40;;;3.25;;
73940;SDS011;62294;48.554;10.202;2024-02-15T02:38:55;5.40;;;2.95;;
73940;SDS011;62294;48.554;10.202;2024-02-15T02:41:27;5.13;;;3.38;;
73940;SDS011;62294;48.554;10.202;2024-02-15T02:43:55;7.20;;;3.33;;
73940;SDS011;62294;48.554;10.202;2024-02-15T02:46:23;5.32;;;3.30;;
73940;SDS011;62294;48.554;10.202;2024-02-15T02:48:50;6.30;;;3.22;;
73940;SDS011;62294;48.554;10.202;2024-02-15T02:51:17;5.85;;;3.30;;
73940;SDS011;62294;48.554;10.202;2024-02-15T02:53:44;4.50;;;3.10;;
73940;SDS011;62294;48.554;10.202;2024-02-15T02:56:11;6.75;;;3.20;;
73940;SDS011;62294;48.554;10.202;2024-02-15T02:58:39;5.22;;;3.40;;
73940;SDS011;62294;48.554;10.202;2024-02-15T03:01:09;5.68;;;3.28;;
73940;SDS011;62294;48.554;10.202;2024-02-15T03:03:35;6.63;;;3.30;;
73940;SDS011;62294;48.554;10.202;2024-02-15T03:06:02;5.55;;;3.15;;
73940;SDS011;62294;48.554;10.202;2024-02-15T03:08:29;5.35;;;3.03;;
73940;SDS011;62294;48.554;10.202;2024-02-15T03:10:56;7.63;;;3.17;;
73940;SDS011;62294;48.554;10.202;2024-02-15T03:13:22;7.57;;;3.30;;
73940;SDS011;62294;48.554;10.202;2024-02-15T03:15:49;6.10;;;3.45;;
73940;SDS011;62294;48.554;10.202;2024-02-15T03:18:17;5.95;;;3.83;;
73940;SDS011;62294;48.554;10.202;2024-02-15T03:20:44;6.32;;;3.67;;
73940;SDS011;62294;48.554;10.202;2024-02-15T03:23:10;3.88;;;2.65;;
73940;SDS011;62294;48.554;10.202;2024-02-15T03:25:37;4.22;;;3.05;;
73940;SDS011;62294;48.554;10.202;2024-02-15T03:28:04;6.38;;;3.17;;
73940;SDS011;62294;48.554;10.202;2024-02-15T03:30:32;5.68;;;3.33;;
73940;SDS011;62294;48.554;10.202;2024-02-15T03:33:01;8.00;;;3.90;;
73940;SDS011;62294;48.554;10.202;2024-02-15T03:35:32;6.53;;;3.15;;
73940;SDS011;62294;48.554;10.202;2024-02-15T03:37:58;6.47;;;3.67;;
73940;SDS011;62294;48.554;10.202;2024-02-15T03:40:25;7.18;;;3.78;;
73940;SDS011;62294;48.554;10.202;2024-02-15T03:42:52;5.05;;;3.08;;
73940;SDS011;62294;48.554;10.202;2024-02-15T03:45:20;3.72;;;2.75;;
73940;SDS011;62294;48.554;10.202;2024-02-15T03:47:51;5.55;;;3.55;;
73940;SDS011;62294;48.554;10.202;2024-02-15T03:50:20;7.18;;;3.55;;
73940;SDS011;62294;48.554;10.202;2024-02-15T03:52:48;7.07;;;3.75;;
73940;SDS011;62294;48.554;10.202;2024-02-15T03:55:16;6.82;;;3.72;;
73940;SDS011;62294;48.554;10.202;2024-02-15T03:57:43;5.78;;;4.20;;
73940;SDS011;62294;48.554;10.202;2024-02-15T04:00:13;8.48;;;3.78;;
73940;SDS011;62294;48.554;10.202;2024-02-15T04:02:48;6.85;;;4.20;;
73940;SDS011;62294;48.554;10.202;2024-02-15T04:05:15;9.82;;;4.07;;
73940;SDS011;62294;48.554;10.202;2024-02-15T04:07:42;5.47;;;3.60;;
73940;SDS011;62294;48.554;10.202;2024-02-15T04:10:12;7.63;;;4.78;;
73940;SDS011;62294;48.554;10.202;2024-02-15T04:12:39;6.88;;;3.72;;
73940;SDS011;62294;48.554;10.202;2024-02-15T04:15:08;7.15;;;3.50;;
73940;SDS011;62294;48.554;10.202;2024-02-15T04:17:39;7.07;;;3.90;;
73940;SDS011;62294;48.554;10.202;2024-02-15T04:20:08;7.93;;;4.07;;
73940;SDS011;62294;48.554;10.202;2024-02-15T04:22:35;6.00;;;3.83;;
73940;SDS011;62294;48.554;10.202;2024-02-15T04:25:05;7.15;;;3.92;;
73940;SDS011;62294;48.554;10.202;2024-02-15T04:27:33;5.97;;;4.05;;
73940;SDS011;62294;48.554;10.202;2024-02-15T04:30:00;6.95;;;4.05;;
73940;SDS011;62294;48.554;10.202;2024-02-15T04:32:28;6.07;;;3.50;;
73940;SDS011;62294;48.554;10.202;2024-02-15T04:35:00;7.35;;;3.55;;
73940;SDS011;62294;48.554;10.202;2024-02-15T04:37:28;4.95;;;3.25;;
73940;SDS011;62294;48.554;10.202;2024-02-15T04:39:55;8.65;;;3.05;;
73940;SDS011;62294;48.554;10.202;2024-02-15T04:42:23;6.25;;;3.63;;
73940;SDS011;62294;48.554;10.202;2024-02-15T04:44:52;7.15;;;3.35;;
73940;SDS011;62294;48.554;10.202;2024-02-15T04:47:20;5.65;;;3.15;;
73940;SDS011;62294;48.554;10.202;2024-02-15T04:49:47;4.97;;;2.90;;
73940;SDS011;62294;48.554;10.202;2024-02-15T04:52:13;6.38;;;2.78;;
73940;SDS011;62294;48.554;10.202;2024-02-15T04:54:40;6.85;;;3.38;;
73940;SDS011;62294;48.554;10.202;2024-02-15T04:57:07;5.38;;;3.45;;
73940;SDS011;62294;48.554;10.202;2024-02-15T04:59:38;5.10;;;2.92;;
73940;SDS011;62294;48.554;10.202;2024-02-15T05:02:05;5.47;;;2.95;;
73940;SDS011;62294;48.554;10.202;2024-02-15T05:04:33;6.35;;;3.47;;
73940;SDS011;62294;48.554;10.202;2024-02-15T05:07:02;3.55;;;2.55;;
73940;SDS011;62294;48.554;10.202;2024-02-15T05:09:30;7.43;;;3.17;;
73940;SDS011;62294;48.554;10.202;2024-02-15T05:11:59;5.32;;;2.90;;
73940;SDS011;62294;48.554;10.202;2024-02-15T05:14:28;3.85;;;2.40;;
73940;SDS011;62294;48.554;10.202;2024-02-15T05:16:55;11.10;;;3.40;;
73940;SDS011;62294;48.554;10.202;2024-02-15T05:19:21;5.95;;;3.22;;
73940;SDS011;62294;48.554;10.202;2024-02-15T05:21:48;8.30;;;3.60;;
73940;SDS011;62294;48.554;10.202;2024-02-15T05:24:15;8.70;;;3.53;;
73940;SDS011;62294;48.554;10.202;2024-02-15T05:26:44;7.63;;;3.80;;
73940;SDS011;62294;48.554;10.202;2024-02-15T05:29:15;5.68;;;3.53;;
73940;SDS011;62294;48.554;10.202;2024-02-15T05:31:41;5.95;;;3.38;;
73940;SDS011;62294;48.554;10.202;2024-02-15T05:34:09;5.90;;;3.75;;
73940;SDS011;62294;48.554;10.202;2024-02-15T05:36:38;6.60;;;3.97;;
73940;SDS011;62294;48.554;10.202;2024-02-15T05:39:05;4.88;;;3.33;;
73940;SDS011;62294;48.554;10.202;2024-02-15T05:41:32;6.63;;;3.50;;
73940;SDS011;62294;48.554;10.202;2024-02-15T05:43:59;6.40;;;3.90;;
73940;SDS011;62294;48.554;10.202;2024-02-15T05:46:26;8.57;;;4.03;;
73940;SDS011;62294;48.554;10.202;2024-02-15T05:48:54;7.07;;;3.75;;
73940;SDS011;62294;48.554;10.202;2024-02-15T05:51:22;5.93;;;3.60;;
73940;SDS011;62294;48.554;10.202;2024-02-15T05:53:49;6.40;;;3.78;;
73940;SDS011;62294;48.554;10.202;2024-02-15T05:56:16;5.63;;;3.55;;
73940;SDS011;62294;48.554;10.202;2024-02-15T05:58:43;7.65;;;4.25;;
73940;SDS011;62294;48.554;10.202;2024-02-15T06:01:09;9.23;;;4.20;;
73940;SDS011;62294;48.554;10.202;2024-02-15T06:03:42;6.85;;;3.63;;
73940;SDS011;62294;48.554;10.202;2024-02-15T06:06:10;7.43;;;4.30;;
73940;SDS011;62294;48.554;10.202;2024-02-15T06:08:37;7.25;;;4.20;;
73940;SDS011;62294;48.554;10.202;2024-02-15T06:11:04;6.13;;;3.83;;
73940;SDS011;62294;48.554;10.202;2024-02-15T06:13:35;7.88;;;3.92;;
73940;SDS011;62294;48.554;10.202;2024-02-15T06:16:02;6.50;;;3.70;;
73940;SDS011;62294;48.554;10.202;2024-02-15T06:18:30;7.18;;;4.35;;
73940;SDS011;62294;48.554;10.202;2024-02-15T06:20:59;7.18;;;3.95;;
73940;SDS011;62294;48.554;10.202;2024-02-15T06:23:26;9.50;;;4.28;;
73940;SDS011;62294;48.554;10.202;2024-02-15T06:25:55;8.93;;;4.30;;
73940;SDS011;62294;48.554;10.202;2024-02-15T06:28:24;6.22;;;3.95;;
73940;SDS011;62294;48.554;10.202;2024-02-15T06:33:55;6.20;;;3.23;;
73940;SDS011;62294;48.554;10.202;2024-02-15T06:36:45;6.05;;;3.53;;
73940;SDS011;62294;48.554;10.202;2024-02-15T06:39:33;6.43;;;3.55;;
73940;SDS011;62294;48.554;10.202;2024-02-15T06:42:12;7.85;;;3.70;;
73940;SDS011;62294;48.554;10.202;2024-02-15T06:44:42;8.65;;;3.88;;
73940;SDS011;62294;48.554;10.202;2024-02-15T06:47:10;6.68;;;3.58;;
73940;SDS011;62294;48.554;10.202;2024-02-15T06:49:38;7.53;;;4.43;;
73940;SDS011;62294;48.554;10.202;2024-02-15T06:52:10;6.82;;;3.90;;
73940;SDS011;62294;48.554;10.202;2024-02-15T06:54:40;7.25;;;3.88;;
73940;SDS011;62294;48.554;10.202;2024-02-15T06:57:08;4.28;;;3.03;;
73940;SDS011;62294;48.554;10.202;2024-02-15T06:59:34;6.30;;;3.95;;
73940;SDS011;62294;48.554;10.202;2024-02-15T07:02:02;7.05;;;4.30;;
73940;SDS011;62294;48.554;10.202;2024-02-15T07:04:31;8.07;;;4.50;;
73940;SDS011;62294;48.554;10.202;2024-02-15T07:06:59;8.90;;;4.38;;
73940;SDS011;62294;48.554;10.202;2024-02-15T07:09:26;6.75;;;4.28;;
73940;SDS011;62294;48.554;10.202;2024-02-15T07:11:54;9.05;;;4.80;;
73940;SDS011;62294;48.554;10.202;2024-02-15T07:14:20;8.85;;;4.90;;
73940;SDS011;62294;48.554;10.202;2024-02-15T07:16:47;7.97;;;4.78;;
73940;SDS011;62294;48.554;10.202;2024-02-15T07:19:15;10.82;;;5.47;;
73940;SDS011;62294;48.554;10.202;2024-02-15T07:21:43;11.93;;;6.65;;
73940;SDS011;62294;48.554;10.202;2024-02-15T07:24:10;13.70;;;6.68;;
73940;SDS011;62294;48.554;10.202;2024-02-15T07:26:37;13.15;;;7.00;;
73940;SDS011;62294;48.554;10.202;2024-02-15T07:29:03;13.73;;;8.07;;
73940;SDS011;62294;48.554;10.202;2024-02-15T07:31:34;15.52;;;9.55;;
73940;SDS011;62294;48.554;10.202;2024-02-15T07:34:01;25.70;;;10.55;;
73940;SDS011;62294;48.554;10.202;2024-02-15T07:36:28;25.65;;;12.50;;
73940;SDS011;62294;48.554;10.202;2024-02-15T07:38:55;24.88;;;13.02;;
73940;SDS011;62294;48.554;10.202;2024-02-15T07:41:28;31.98;;;15.23;;
73940;SDS011;62294;48.554;10.202;2024-02-15T07:43:55;44.78;;;18.73;;
73940;SDS011;62294;48.554;10.202;2024-02-15T07:46:22;33.58;;;15.88;;
73940;SDS011;62294;48.554;10.202;2024-02-15T07:48:50;25.02;;;12.73;;
73940;SDS011;62294;48.554;10.202;2024-02-15T07:51:18;20.98;;;11.18;;
73940;SDS011;62294;48.554;10.202;2024-02-15T07:53:46;19.42;;;9.55;;
73940;SDS011;62294;48.554;10.202;2024-02-15T07:56:14;16.15;;;8.73;;
73940;SDS011;62294;48.554;10.202;2024-02-15T07:58:45;14.68;;;9.80;;
73940;SDS011;62294;48.554;10.202;2024-02-15T08:01:18;13.25;;;8.82;;
73940;SDS011;62294;48.554;10.202;2024-02-15T08:03:50;14.88;;;8.93;;
73940;SDS011;62294;48.554;10.202;2024-02-15T08:06:21;11.25;;;7.05;;
73940;SDS011;62294;48.554;10.202;2024-02-15T08:08:51;11.13;;;7.05;;
73940;SDS011;62294;48.554;10.202;2024-02-15T08:11:19;14.77;;;7.18;;
73940;SDS011;62294;48.554;10.202;2024-02-15T08:13:49;10.45;;;6.75;;
73940;SDS011;62294;48.554;10.202;2024-02-15T08:16:18;14.27;;;6.95;;
73940;SDS011;62294;48.554;10.202;2024-02-15T08:18:46;9.68;;;5.50;;
73940;SDS011;62294;48.554;10.202;2024-02-15T08:21:13;7.88;;;5.00;;
73940;SDS011;62294;48.554;10.202;2024-02-15T08:23:41;12.70;;;5.82;;
73940;SDS011;62294;48.554;10.202;2024-02-15T08:26:08;7.25;;;4.82;;
73940;SDS011;62294;48.554;10.202;2024-02-15T08:28:37;8.65;;;5.28;;
73940;SDS011;62294;48.554;10.202;2024-02-15T08:31:04;9.55;;;5.15;;
73940;SDS011;62294;48.554;10.202;2024-02-15T08:33:31;8.25;;;5.03;;
73940;SDS011;62294;48.554;10.202;2024-02-15T08:35:58;7.90;;;5.18;;
73940;SDS011;62294;48.554;10.202;2024-02-15T08:38:27;14.90;;;6.13;;
73940;SDS011;62294;48.554;10.202;2024-02-15T08:40:54;11.10;;;5.95;;
73940;SDS011;62294;48.554;10.202;2024-02-15T08:43:20;8.23;;;5.32;;
73940;SDS011;62294;48.554;10.202;2024-02-15T08:45:47;14.93;;;6.50;;
73940;SDS011;62294;48.554;10.202;2024-02-15T08:48:14;8.98;;;5.20;;
73940;SDS011;62294;48.554;10.202;2024-02-15T08:50:41;14.25;;;6.95;;
73940;SDS011;62294;48.554;10.202;2024-02-15T08:53:08;17.48;;;8.48;;
73940;SDS011;62294;48.554;10.202;2024-02-15T08:55:34;10.52;;;7.38;;
73940;SDS011;62294;48.554;10.202;2024-02-15T08:58:02;15.25;;;7.53;;
73940;SDS011;62294;48.554;10.202;2024-02-15T09:00:30;11.95;;;6.32;;
73940;SDS011;62294;48.554;10.202;2024-02-15T09:02:58;9.73;;;5.55;;
73940;SDS011;62294;48.554;10.202;2024-02-15T09:05:24;8.85;;;5.50;;
73940;SDS011;62294;48.554;10.202;2024-02-15T09:07:51;14.43;;;5.63;;
73940;SDS011;62294;48.554;10.202;2024-02-15T09:10:18;10.80;;;5.60;;
73940;SDS011;62294;48.554;10.202;2024-02-15T09:12:45;8.13;;;4.60;;
73940;SDS011;62294;48.554;10.202;2024-02-15T09:15:16;10.27;;;4.90;;
73940;SDS011;62294;48.554;10.202;2024-02-15T09:17:44;14.82;;;8.07;;
73940;SDS011;62294;48.554;10.202;2024-02-15T09:20:13;13.27;;;6.97;;
73940;SDS011;62294;48.554;10.202;2024-02-15T09:22:42;15.32;;;8.23;;
73940;SDS011;62294;48.554;10.202;2024-02-15T09:25:18;15.27;;;8.02;;
73940;SDS011;62294;48.554;10.202;2024-02-15T09:27:46;13.80;;;6.63;;
73940;SDS011;62294;48.554;10.202;2024-02-15T09:30:13;8.75;;;5.07;;
73940;SDS011;62294;48.554;10.202;2024-02-15T09:32:40;9.93;;;4.45;;
73940;SDS011;62294;48.554;10.202;2024-02-15T09:35:07;9.07;;;3.97;;
73940;SDS011;62294;48.554;10.202;2024-02-15T09:37:36;7.82;;;4.35;;
73940;SDS011;62294;48.554;10.202;2024-02-15T09:40:12;13.93;;;6.63;;
73940;SDS011;62294;48.554;10.202;2024-02-15T09:42:39;8.93;;;4.07;;
73940;SDS011;62294;48.554;10.202;2024-02-15T09:45:07;9.32;;;4.25;;
73940;SDS011;62294;48.554;10.202;2024-02-15T09:47:37;9.45;;;4.50;;
73940;SDS011;62294;48.554;10.202;2024-02-15T09:50:08;8.85;;;6.00;;
73940;SDS011;62294;48.554;10.202;2024-02-15T09:52:38;7.20;;;4.10;;
73940;SDS011;62294;48.554;10.202;2024-02-15T09:55:07;7.75;;;4.88;;
73940;SDS011;62294;48.554;10.202;2024-02-15T09:57:44;5.55;;;3.95;;
73940;SDS011;62294;48.554;10.202;2024-02-15T10:00:14;7.95;;;4.03;;
73940;SDS011;62294;48.554;10.202;2024-02-15T10:02:43;8.45;;;4.43;;
73940;SDS011;62294;48.554;10.202;2024-02-15T10:05:12;6.88;;;4.15;;
73940;SDS011;62294;48.554;10.202;2024-02-15T10:07:39;9.43;;;4.32;;
73940;SDS011;62294;48.554;10.202;2024-02-15T10:10:24;8.10;;;4.30;;
73940;SDS011;62294;48.554;10.202;2024-02-15T10:12:53;6.35;;;4.00;;
73940;SDS011;62294;48.554;10.202;2024-02-15T10:15:36;10.27;;;4.00;;
73940;SDS011;62294;48.554;10.202;2024-02-15T10:18:05;7.72;;;4.28;;
73940;SDS011;62294;48.554;10.202;2024-02-15T10:20:40;7.65;;;4.13;;
73940;SDS011;62294;48.554;10.202;2024-02-15T10:23:12;6.53;;;4.03;;
73940;SDS011;62294;48.554;10.202;2024-02-15T10:25:40;8.55;;;4.55;;
73940;SDS011;62294;48.554;10.202;2024-02-15T10:28:08;10.55;;;4.50;;
73940;SDS011;62294;48.554;10.202;2024-02-15T10:30:39;7.90;;;4.50;;
73940;SDS011;62294;48.554;10.202;2024-02-15T10:33:09;5.80;;;4.20;;
73940;SDS011;62294;48.554;10.202;2024-02-15T10:35:36;7.85;;;4.28;;
73940;SDS011;62294;48.554;10.202;2024-02-15T10:38:09;7.60;;;4.35;;
73940;SDS011;62294;48.554;10.202;2024-02-15T10:40:37;5.82;;;3.50;;
73940;SDS011;62294;48.554;10.202;2024-02-15T10:43:07;6.28;;;3.13;;
73940;SDS011;62294;48.554;10.202;2024-02-15T10:45:34;6.25;;;3.22;;
73940;SDS011;62294;48.554;10.202;2024-02-15T10:48:09;7.60;;;3.90;;
73940;SDS011;62294;48.554;10.202;2024-02-15T10:50:39;4.43;;;2.92;;
73940;SDS011;62294;48.554;10.202;2024-02-15T10:53:21;7.15;;;3.25;;
73940;SDS011;62294;48.554;10.202;2024-02-15T10:58:55;4.90;;;3.17;;
73940;SDS011;62294;48.554;10.202;2024-02-15T11:01:29;6.63;;;3.42;;
73940;SDS011;62294;48.554;10.202;2024-02-15T11:04:03;6.90;;;3.30;;
73940;SDS011;62294;48.554;10.202;2024-02-15T11:06:35;6.22;;;2.85;;
73940;SDS011;62294;48.554;10.202;2024-02-15T11:09:05;5.53;;;2.92;;
73940;SDS011;62294;48.554;10.202;2024-02-15T11:11:34;9.57;;;2.85;;
73940;SDS011;62294;48.554;10.202;2024-02-15T11:16:58;5.03;;;2.92;;
73940;SDS011;62294;48.554;10.202;2024-02-15T11:22:08;6.53;;;3.30;;
73940;SDS011;62294;48.554;10.202;2024-02-15T11:24:37;5.15;;;2.80;;
73940;SDS011;62294;48.554;10.202;2024-02-15T11:27:13;5.15;;;2.42;;
73940;SDS011;62294;48.554;10.202;2024-02-15T11:32:35;4.78;;;2.95;;
73940;SDS011;62294;48.554;10.202;2024-02-15T11:35:06;3.75;;;2.45;;
73940;SDS011;62294;48.554;10.202;2024-02-15T11:38:11;4.13;;;1.88;;
73940;SDS011;62294;48.554;10.202;2024-02-15T11:43:07;4.22;;;2.60;;
73940;SDS011;62294;48.554;10.202;2024-02-15T11:45:35;3.78;;;2.50;;
73940;SDS011;62294;48.554;10.202;2024-02-15T11:48:08;5.32;;;2.40;;
73940;SDS011;62294;48.554;10.202;2024-02-15T11:50:38;3.85;;;2.50;;
73940;SDS011;62294;48.554;10.202;2024-02-15T11:53:08;6.30;;;2.63;;
73940;SDS011;62294;48.554;10.202;2024-02-15T11:55:37;4.97;;;3.08;;
73940;SDS011;62294;48.554;10.202;2024-02-15T11:58:05;3.85;;;2.60;;
73940;SDS011;62294;48.554;10.202;2024-02-15T12:00:37;6.97;;;3.00;;
73940;SDS011;62294;48.554;10.202;2024-02-15T12:03:24;3.72;;;2.45;;
73940;SDS011;62294;48.554;10.202;2024-02-15T12:06:26;4.65;;;2.65;;
73940;SDS011;62294;48.554;10.202;2024-02-15T12:09:13;6.85;;;2.47;;
73940;SDS011;62294;48.554;10.202;2024-02-15T12:12:02;5.43;;;2.38;;
73940;SDS011;62294;48.554;10.202;2024-02-15T12:14:48;4.25;;;2.47;;
73940;SDS011;62294;48.554;10.202;2024-02-15T12:17:33;3.83;;;2.78;;
73940;SDS011;62294;48.554;10.202;2024-02-15T12:20:18;5.20;;;2.33;;
73940;SDS011;62294;48.554;10.202;2024-02-15T12:22:51;4.38;;;2.10;;
73940;SDS011;62294;48.554;10.202;2024-02-15T12:25:19;4.40;;;2.10;;
73940;SDS011;62294;48.554;10.202;2024-02-15T12:27:59;4.47;;;2.63;;
73940;SDS011;62294;48.554;10.202;2024-02-15T12:30:26;4.07;;;2.40;;
73940;SDS011;62294;48.554;10.202;2024-02-15T12:33:09;4.90;;;2.10;;
73940;SDS011;62294;48.554;10.202;2024-02-15T12:35:37;2.13;;;1.77;;
73940;SDS011;62294;48.554;10.202;2024-02-15T12:38:04;5.40;;;2.22;;
73940;SDS011;62294;48.554;10.202;2024-02-15T12:40:32;3.97;;;2.20;;
73940;SDS011;62294;48.554;10.202;2024-02-15T12:43:00;2.95;;;1.90;;
73940;SDS011;62294;48.554;10.202;2024-02-15T12:45:27;3.90;;;2.20;;
73940;SDS011;62294;48.554;10.202;2024-02-15T12:47:56;3.58;;;2.13;;
73940;SDS011;62294;48.554;10.202;2024-02-15T12:50:27;2.67;;;1.70;;
73940;SDS011;62294;48.554;10.202;2024-02-15T12:52:54;4.93;;;2.30;;
73940;SDS011;62294;48.554;10.202;2024-02-15T12:55:22;3.03;;;1.73;;
73940;SDS011;62294;48.554;10.202;2024-02-15T12:57:51;4.32;;;1.67;;
73940;SDS011;62294;48.554;10.202;2024-02-15T13:00:23;2.72;;;1.55;;
73940;SDS011;62294;48.554;10.202;2024-02-15T13:03:01;3.42;;;1.80;;
73940;SDS011;62294;48.554;10.202;2024-02-15T13:05:30;3.05;;;1.58;;
73940;SDS011;62294;48.554;10.202;2024-02-15T13:07:58;5.32;;;2.00;;
73940;SDS011;62294;48.554;10.202;2024-02-15T13:10:25;4.95;;;2.15;;
73940;SDS011;62294;48.554;10.202;2024-02-15T13:12:52;3.22;;;1.70;;
73940;SDS011;62294;48.554;10.202;2024-02-15T13:15:19;2.67;;;1.73;;
73940;SDS011;62294;48.554;10.202;2024-02-15T13:17:48;3.60;;;2.10;;
73940;SDS011;62294;48.554;10.202;2024-02-15T13:20:15;4.35;;;1.95;;
73940;SDS011;62294;48.554;10.202;2024-02-15T13:22:42;3.53;;;1.77;;
73940;SDS011;62294;48.554;10.202;2024-02-15T13:25:13;5.43;;;1.77;;
73940;SDS011;62294;48.554;10.202;2024-02-15T13:27:43;1.90;;;1.63;;
73940;SDS011;62294;48.554;10.202;2024-02-15T13:30:09;4.57;;;1.35;;
73940;SDS011;62294;48.554;10.202;2024-02-15T13:32:38;4.20;;;1.73;;
73940;SDS011;62294;48.554;10.202;2024-02-15T13:35:08;2.58;;;1.63;;
73940;SDS011;62294;48.554;10.202;2024-02-15T13:37:43;2.92;;;1.65;;
73940;SDS011;62294;48.554;10.202;2024-02-15T13:40:15;5.35;;;1.60;;
73940;SDS011;62294;48.554;10.202;2024-02-15T13:42:45;3.33;;;1.75;;
73940;SDS011;62294;48.554;10.202;2024-02-15T13:45:19;2.13;;;1.30;;
73940;SDS011;62294;48.554;10.202;2024-02-15T13:47:51;2.92;;;1.33;;
73940;SDS011;62294;48.554;10.202;2024-02-15T13:50:23;2.63;;;1.77;;
73940;SDS011;62294;48.554;10.202;2024-02-15T13:52:50;2.03;;;1.40;;
73940;SDS011;62294;48.554;10.202;2024-02-15T13:55:17;3.85;;;1.70;;
73940;SDS011;62294;48.554;10.202;2024-02-15T13:57:45;2.30;;;1.30;;
73940;SDS011;62294;48.554;10.202;2024-02-15T14:00:15;2.55;;;1.23;;
73940;SDS011;62294;48.554;10.202;2024-02-15T14:02:52;2.27;;;1.17;;
73940;SDS011;62294;48.554;10.202;2024-02-15T14:05:21;1.83;;;1.23;;
73940;SDS011;62294;48.554;10.202;2024-02-15T14:07:51;2.53;;;1.08;;
73940;SDS011;62294;48.554;10.202;2024-02-15T14:10:22;1.40;;;1.30;;
73940;SDS011;62294;48.554;10.202;2024-02-15T14:12:50;2.80;;;1.40;;
73940;SDS011;62294;48.554;10.202;2024-02-15T14:15:19;4.32;;;1.50;;
73940;SDS011;62294;48.554;10.202;2024-02-15T14:17:45;3.67;;;1.42;;
73940;SDS011;62294;48.554;10.202;2024-02-15T14:20:12;3.53;;;1.30;;
73940;SDS011;62294;48.554;10.202;2024-02-15T14:22:40;5.40;;;1.20;;
73940;SDS011;62294;48.554;10.202;2024-02-15T14:25:08;2.78;;;1.70;;
73940;SDS011;62294;48.554;10.202;2024-02-15T14:27:35;3.65;;;2.10;;
73940;SDS011;62294;48.554;10.202;2024-02-15T14:30:01;1.30;;;1.20;;
73940;SDS011;62294;48.554;10.202;2024-02-15T14:32:46;3.20;;;1.50;;
73940;SDS011;62294;48.554;10.202;2024-02-15T14:35:31;3.25;;;1.17;;
73940;SDS011;62294;48.554;10.202;2024-02-15T14:38:08;2.95;;;1.48;;
73940;SDS011;62294;48.554;10.202;2024-02-15T14:40:40;3.40;;;1.35;;
73940;SDS011;62294;48.554;10.202;2024-02-15T14:43:14;2.63;;;1.20;;
73940;SDS011;62294;48.554;10.202;2024-02-15T14:45:45;2.65;;;1.65;;
73940;SDS011;62294;48.554;10.202;2024-02-15T14:48:12;2.00;;;1.40;;
73940;SDS011;62294;48.554;10.202;2024-02-15T14:50:40;5.13;;;2.20;;
73940;SDS011;62294;48.554;10.202;2024-02-15T14:53:08;2.92;;;1.50;;
73940;SDS011;62294;48.554;10.202;2024-02-15T14:55:37;3.80;;;1.92;;
73940;SDS011;62294;48.554;10.202;2024-02-15T14:58:05;3.83;;;1.25;;
73940;SDS011;62294;48.554;10.202;2024-02-15T15:00:39;3.03;;;1.75;;
73940;SDS011;62294;48.554;10.202;2024-02-15T15:03:08;3.67;;;1.80;;